7NC0 weather

CLOSED Pamlico Airport
Bayboro, North Carolina, United States

Public forecast

Using degrees Fahrenheit for public forecast. Weather courtesy of forecast.io.

METAR (pilot weather report)

Closest report is Coastal Carolina Regional Airport, 14.7 nm (27.2 km) WSW. Retrieved 2019/04/20 08:54 UTC (57 minutes ago):

KEWN 200854Z AUTO 19008KT 10SM BKN060 OVC075 17/16 A2964 RMK AO2 RAB0757E07 SLP036 P0000 60033 T01720161 53005 $

TAF (pilot weather forecast)

Closest forecast is Coastal Carolina Regional Airport, 14.7 nm (27.2 km) WSW. Retrieved 2019/04/20 06:24 UTC (3 hours ago):

TAF KEWN 200521Z 2006/2106 17012G19KT P6SM VCSH SCT015 BKN060 FM200800 19013G21KT P6SM VCSH BKN025 FM201200 22010G16KT P6SM FEW250 FM210200 21007KT P6SM FEW250